createdAt,value
2022-10-24T00:00:32.261Z,17.18
2022-10-24T00:03:00.248Z,17.10
2022-10-24T00:05:27.660Z,16.89
2022-10-24T00:07:55.160Z,17.09
2022-10-24T00:10:22.839Z,16.79
2022-10-24T00:12:50.217Z,16.58
2022-10-24T00:15:17.574Z,16.66
2022-10-24T00:17:45.188Z,16.93
2022-10-24T00:20:12.901Z,17.05
2022-10-24T00:22:40.255Z,17.03
2022-10-24T00:25:08.149Z,17.11
2022-10-24T00:27:36.308Z,17.19
2022-10-24T00:30:05.484Z,17.12
2022-10-24T00:32:33.189Z,17.01
2022-10-24T00:35:00.540Z,16.62
2022-10-24T00:37:27.878Z,16.65
2022-10-24T00:39:55.491Z,17.04
2022-10-24T00:42:23.093Z,16.70
2022-10-24T00:44:53.093Z,16.85
2022-10-24T00:47:24.786Z,17.00
2022-10-24T00:50:12.358Z,17.02
2022-10-24T00:52:45.391Z,17.43
2022-10-24T00:55:13.828Z,17.13
2022-10-24T00:57:51.664Z,16.95
2022-10-24T01:00:22.225Z,16.69
2022-10-24T01:02:49.929Z,16.75
2022-10-24T01:05:19.277Z,16.51
2022-10-24T01:07:52.525Z,16.22
2022-10-24T01:10:40.784Z,16.33
2022-10-24T01:13:26.708Z,16.53
2022-10-24T01:16:02.176Z,16.57
2022-10-24T01:18:34.622Z,16.36
2022-10-24T01:21:25.097Z,16.48
2022-10-24T01:24:32.583Z,16.28
2022-10-24T01:27:30.358Z,16.23
2022-10-24T01:30:10.568Z,16.35
2022-10-24T01:32:46.003Z,16.17
2022-10-24T01:35:37.064Z,16.13
2022-10-24T01:38:19.659Z,16.62
2022-10-24T01:40:52.538Z,16.38
2022-10-24T01:43:27.744Z,16.35
2022-10-24T01:46:08.541Z,16.35
2022-10-24T01:48:40.525Z,16.62
2022-10-24T01:51:08.300Z,16.33
2022-10-24T01:53:36.304Z,16.39
2022-10-24T01:56:03.868Z,16.48
2022-10-24T01:58:31.220Z,16.34
2022-10-24T02:01:00.612Z,16.50
2022-10-24T02:03:39.534Z,16.62
2022-10-24T02:06:14.023Z,16.24
2022-10-24T02:08:44.413Z,16.23
2022-10-24T02:11:12.590Z,16.34
2022-10-24T02:13:45.667Z,16.18
2022-10-24T02:16:17.002Z,16.09
2022-10-24T02:18:44.570Z,16.26
2022-10-24T02:21:28.205Z,16.25
2022-10-24T02:23:58.775Z,15.86
2022-10-24T02:26:32.489Z,15.97
2022-10-24T02:29:03.434Z,15.96
2022-10-24T02:31:40.588Z,16.04
2022-10-24T02:34:09.802Z,15.97
2022-10-24T02:36:37.902Z,15.88
2022-10-24T02:39:07.035Z,15.91
2022-10-24T02:41:36.845Z,15.88
2022-10-24T02:44:04.690Z,15.75
2022-10-24T02:46:32.465Z,16.01
2022-10-24T02:49:01.563Z,15.83
2022-10-24T02:51:32.188Z,15.82
2022-10-24T02:54:00.852Z,15.95
2022-10-24T02:56:28.655Z,16.33
2022-10-24T02:58:56.079Z,16.21
2022-10-24T03:01:23.836Z,16.29
2022-10-24T03:03:51.280Z,16.23
2022-10-24T03:06:18.659Z,16.00
2022-10-24T03:08:46.281Z,16.14
2022-10-24T03:11:13.627Z,15.94
2022-10-24T03:13:40.962Z,15.47
2022-10-24T03:16:11.608Z,15.82
2022-10-24T03:18:41.418Z,15.69
2022-10-24T03:21:09.011Z,15.79
2022-10-24T03:23:36.309Z,15.81
2022-10-24T03:26:03.635Z,15.63
2022-10-24T03:28:31.248Z,15.68
2022-10-24T03:30:58.576Z,15.54
2022-10-24T03:33:25.924Z,15.56
2022-10-24T03:35:54.233Z,15.65
2022-10-24T03:38:23.134Z,15.81
2022-10-24T03:40:51.053Z,15.94
2022-10-24T03:43:18.904Z,15.66
2022-10-24T03:45:46.653Z,15.54
2022-10-24T03:48:14.179Z,16.01
2022-10-24T03:50:41.876Z,15.63
2022-10-24T03:53:09.213Z,15.79
2022-10-24T03:55:36.619Z,16.16
2022-10-24T03:58:04.368Z,16.24
2022-10-24T04:00:34.668Z,16.06
2022-10-24T04:03:02.340Z,15.86
2022-10-24T04:05:29.737Z,15.85
2022-10-24T04:07:57.125Z,16.23
2022-10-24T04:10:24.690Z,16.02
2022-10-24T04:12:52.036Z,15.99
2022-10-24T04:15:19.436Z,16.26
2022-10-24T04:17:47.341Z,16.10
2022-10-24T04:20:19.445Z,15.97
2022-10-24T04:22:47.679Z,15.84
2022-10-24T04:25:16.324Z,15.89
2022-10-24T04:27:43.973Z,15.72
2022-10-24T04:30:16.558Z,15.85
2022-10-24T04:32:44.902Z,16.11
2022-10-24T04:35:13.905Z,15.65
2022-10-24T04:37:41.314Z,15.75
2022-10-24T04:40:09.517Z,15.89
2022-10-24T04:42:37.263Z,15.81
2022-10-24T04:45:05.129Z,16.10
2022-10-24T04:47:32.702Z,15.86
2022-10-24T04:50:00.293Z,16.26
2022-10-24T04:52:27.626Z,15.90
2022-10-24T04:54:55.024Z,15.94
2022-10-24T04:57:22.631Z,15.50
2022-10-24T04:59:50.103Z,15.45
2022-10-24T05:02:17.549Z,15.52
2022-10-24T05:04:45.195Z,15.27
2022-10-24T05:07:12.518Z,15.77
2022-10-24T05:09:39.856Z,15.79
2022-10-24T05:12:07.568Z,15.86
2022-10-24T05:14:35.003Z,15.99
2022-10-24T05:17:02.440Z,15.65
2022-10-24T05:19:30.222Z,15.63
2022-10-24T05:21:57.561Z,15.58
2022-10-24T05:24:25.047Z,16.01
2022-10-24T05:26:52.654Z,15.82
2022-10-24T05:29:20.002Z,15.92
2022-10-24T05:31:47.461Z,16.07
2022-10-24T05:34:15.117Z,16.13
2022-10-24T05:36:42.497Z,16.02
2022-10-24T05:39:09.892Z,16.34
2022-10-24T05:41:37.548Z,16.44
2022-10-24T05:44:04.990Z,16.27
2022-10-24T05:46:32.602Z,16.02
2022-10-24T05:49:00.375Z,15.91
2022-10-24T05:51:27.733Z,16.15
2022-10-24T05:53:57.454Z,16.14
2022-10-24T05:56:25.766Z,16.11
2022-10-24T05:58:53.172Z,16.03
2022-10-24T06:01:20.774Z,16.20
2022-10-24T06:03:48.449Z,16.08
2022-10-24T06:06:15.897Z,16.06
2022-10-24T06:08:43.237Z,16.27
2022-10-24T06:11:11.677Z,16.58
2022-10-24T06:13:39.538Z,16.22
2022-10-24T06:16:07.360Z,16.02
2022-10-24T06:18:36.164Z,16.49
2022-10-24T06:21:05.494Z,16.40
2022-10-24T06:23:33.231Z,16.19
2022-10-24T06:26:00.868Z,16.19
2022-10-24T06:28:28.295Z,15.87
2022-10-24T06:30:55.678Z,15.64
2022-10-24T06:33:23.323Z,15.51
2022-10-24T06:35:50.697Z,15.38
2022-10-24T06:38:18.044Z,15.31
2022-10-24T06:40:45.682Z,15.69
2022-10-24T06:43:13.043Z,15.62
2022-10-24T06:45:40.389Z,15.58
2022-10-24T06:48:08.024Z,15.47
2022-10-24T06:50:36.982Z,15.31
2022-10-24T06:53:04.332Z,15.27
2022-10-24T06:55:31.939Z,15.56
2022-10-24T06:57:59.629Z,14.99
2022-10-24T07:02:59.681Z,15.59
2022-10-24T07:05:27.166Z,15.29
2022-10-24T07:07:54.546Z,15.27
2022-10-24T07:10:22.251Z,15.56
2022-10-24T07:12:49.619Z,15.78
2022-10-24T07:15:17.050Z,15.56
2022-10-24T07:17:45.327Z,15.78
2022-10-24T07:20:13.300Z,15.82
2022-10-24T07:22:41.888Z,15.92
2022-10-24T07:25:09.752Z,16.11
2022-10-24T07:27:37.248Z,15.71
2022-10-24T07:30:06.125Z,16.03
2022-10-24T07:32:34.096Z,16.26
2022-10-24T07:35:01.484Z,16.42
2022-10-24T07:37:28.835Z,16.32
2022-10-24T07:39:56.481Z,16.75
2022-10-24T07:42:23.791Z,16.04
2022-10-24T07:44:51.263Z,16.21
2022-10-24T07:47:18.901Z,15.89
2022-10-24T07:49:46.244Z,15.97
2022-10-24T07:52:13.609Z,16.24
2022-10-24T07:54:41.252Z,16.09
2022-10-24T07:57:08.623Z,16.26
2022-10-24T07:59:43.193Z,16.63
2022-10-24T08:02:14.750Z,16.36
2022-10-24T08:04:42.464Z,16.54
2022-10-24T08:07:14.326Z,16.40
2022-10-24T08:09:45.019Z,16.57
2022-10-24T08:12:12.662Z,16.81
2022-10-24T08:14:41.167Z,16.89
2022-10-24T08:17:09.132Z,16.91
2022-10-24T08:19:43.787Z,16.30
2022-10-24T08:22:12.461Z,16.38
2022-10-24T08:24:39.829Z,16.47
2022-10-24T08:27:07.249Z,16.31
2022-10-24T08:29:35.556Z,16.46
2022-10-24T08:32:02.977Z,16.51
2022-10-24T08:34:30.419Z,16.48
2022-10-24T08:36:58.080Z,16.21
2022-10-24T08:39:27.027Z,16.39
2022-10-24T08:41:59.507Z,15.99
2022-10-24T08:44:40.418Z,15.77
2022-10-24T08:47:29.689Z,15.91
2022-10-24T08:50:09.384Z,15.98
2022-10-24T08:52:49.871Z,15.69
2022-10-24T08:55:48.094Z,15.91
2022-10-24T08:58:31.361Z,15.96
2022-10-24T09:01:01.140Z,16.39
2022-10-24T09:03:55.074Z,16.15
2022-10-24T09:06:29.482Z,16.24
2022-10-24T09:08:58.517Z,16.30
2022-10-24T09:11:41.698Z,16.57
2022-10-24T09:14:14.414Z,16.56
2022-10-24T09:16:44.441Z,16.67
2022-10-24T09:19:15.894Z,16.74
2022-10-24T09:21:43.913Z,16.65
2022-10-24T09:24:23.112Z,17.21
2022-10-24T09:26:50.776Z,17.13
2022-10-24T09:29:18.182Z,17.00
2022-10-24T09:31:49.382Z,16.99
2022-10-24T09:34:17.458Z,17.24
2022-10-24T09:36:44.821Z,16.90
2022-10-24T09:39:32.804Z,16.83
2022-10-24T09:42:01.759Z,16.78
2022-10-24T09:44:31.513Z,16.78
2022-10-24T09:46:59.088Z,17.11
2022-10-24T09:49:33.483Z,17.04
2022-10-24T09:52:16.105Z,16.56
2022-10-24T09:54:44.806Z,17.10
2022-10-24T09:57:12.083Z,17.00
2022-10-24T10:00:03.489Z,16.75
2022-10-24T10:02:37.614Z,16.90
2022-10-24T10:05:05.226Z,17.02
2022-10-24T10:07:38.776Z,16.89
2022-10-24T10:10:18.619Z,17.08
2022-10-24T10:12:55.280Z,17.32
2022-10-24T10:15:31.077Z,17.35
2022-10-24T10:18:03.934Z,17.54
2022-10-24T10:20:37.132Z,17.49
2022-10-24T10:23:17.489Z,17.63
2022-10-24T10:25:45.123Z,17.68
2022-10-24T10:28:21.181Z,17.75
2022-10-24T10:30:55.261Z,17.83
2022-10-24T10:33:53.904Z,17.79
2022-10-24T10:36:25.380Z,17.92
2022-10-24T10:39:30.381Z,17.91
2022-10-24T10:42:03.688Z,17.90
2022-10-24T10:44:40.096Z,18.18
2022-10-24T10:47:38.915Z,18.09
2022-10-24T10:50:39.744Z,18.15
2022-10-24T10:53:31.741Z,18.14
2022-10-24T10:56:21.182Z,18.23
2022-10-24T10:59:04.167Z,17.99
2022-10-24T11:01:53.320Z,17.76
2022-10-24T11:04:42.638Z,17.90
2022-10-24T11:07:23.344Z,18.21
2022-10-24T11:09:52.894Z,18.22
2022-10-24T11:12:26.636Z,17.96
2022-10-24T11:15:09.773Z,18.33
2022-10-24T11:17:59.335Z,18.31
2022-10-24T11:20:29.825Z,18.47
2022-10-24T11:23:02.300Z,18.51
2022-10-24T11:25:32.015Z,18.49
2022-10-24T11:28:07.723Z,18.27
2022-10-24T11:30:42.633Z,18.48
2022-10-24T11:33:12.084Z,18.36
2022-10-24T11:35:44.803Z,18.34
2022-10-24T11:38:24.304Z,18.15
2022-10-24T11:40:58.886Z,18.23
2022-10-24T11:43:37.901Z,18.31
2022-10-24T11:46:12.620Z,18.29
2022-10-24T11:48:53.322Z,18.47
2022-10-24T11:51:36.048Z,18.50
2022-10-24T11:54:05.599Z,18.38
2022-10-24T11:56:50.442Z,18.27
2022-10-24T11:59:24.470Z,18.37
2022-10-24T12:01:54.954Z,18.39
2022-10-24T12:04:37.471Z,17.92
2022-10-24T12:07:13.549Z,17.45
2022-10-24T12:10:02.118Z,17.20
2022-10-24T12:12:56.879Z,16.77
2022-10-24T12:15:35.479Z,16.61
2022-10-24T12:18:12.176Z,16.12
2022-10-24T12:20:40.466Z,16.80
2022-10-24T12:23:08.191Z,17.63
2022-10-24T12:25:37.239Z,17.99
2022-10-24T12:28:08.721Z,18.18
2022-10-24T12:30:36.782Z,18.43
2022-10-24T12:33:08.735Z,17.74
2022-10-24T12:35:44.522Z,17.72
2022-10-24T12:38:16.316Z,17.44
2022-10-24T12:41:05.855Z,17.30
2022-10-24T12:43:44.350Z,17.97
2022-10-24T12:46:18.811Z,17.71
2022-10-24T12:48:59.212Z,18.49
2022-10-24T12:51:28.889Z,18.47
2022-10-24T12:54:11.024Z,17.28
2022-10-24T12:56:50.540Z,18.10
2022-10-24T12:59:22.634Z,17.56
2022-10-24T13:02:11.716Z,17.36
2022-10-24T13:04:42.137Z,18.26
2022-10-24T13:07:18.083Z,17.84
2022-10-24T13:09:55.617Z,18.56
2022-10-24T13:12:56.902Z,18.85
2022-10-24T13:15:42.146Z,19.06
2022-10-24T13:18:21.830Z,18.92
2022-10-24T13:20:50.367Z,18.79
2022-10-24T13:23:24.969Z,18.80
2022-10-24T13:25:57.289Z,18.90
2022-10-24T13:28:24.865Z,18.83
2022-10-24T13:30:58.600Z,18.49
2022-10-24T13:33:29.003Z,17.40
2022-10-24T13:36:09.692Z,18.33
2022-10-24T13:38:41.940Z,18.69
2022-10-24T13:41:11.386Z,19.05
2022-10-24T13:43:43.414Z,19.34
2022-10-24T13:46:13.243Z,18.45
2022-10-24T13:48:46.668Z,18.54
2022-10-24T13:51:47.588Z,18.56
2022-10-24T13:54:21.299Z,17.90
2022-10-24T13:56:48.853Z,17.27
2022-10-24T13:59:31.783Z,17.12
2022-10-24T14:02:02.871Z,17.08
2022-10-24T14:04:30.893Z,17.01
2022-10-24T14:07:03.862Z,16.72
2022-10-24T14:09:39.363Z,16.65
2022-10-24T14:12:06.789Z,17.19
2022-10-24T14:14:40.044Z,17.29
2022-10-24T14:17:31.507Z,17.56
2022-10-24T14:20:13.382Z,17.59
2022-10-24T14:22:41.264Z,17.28
2022-10-24T14:25:30.087Z,17.37
2022-10-24T14:28:03.880Z,17.65
2022-10-24T14:30:35.029Z,17.78
2022-10-24T14:33:12.984Z,17.01
2022-10-24T14:35:41.145Z,17.40
2022-10-24T14:38:13.723Z,18.04
2022-10-24T14:40:43.242Z,17.46
2022-10-24T14:43:24.423Z,17.21
2022-10-24T14:46:13.037Z,17.19
2022-10-24T14:48:46.142Z,16.91
2022-10-24T14:51:16.683Z,16.84
2022-10-24T14:53:44.974Z,17.52
2022-10-24T14:56:25.084Z,17.26
2022-10-24T14:58:54.719Z,16.85
2022-10-24T15:01:23.628Z,16.52
2022-10-24T15:04:01.107Z,16.54
2022-10-24T15:06:37.557Z,16.61
2022-10-24T15:09:10.987Z,16.74
2022-10-24T15:11:41.221Z,17.09
2022-10-24T15:14:36.777Z,17.45
2022-10-24T15:17:31.647Z,17.47
2022-10-24T15:20:01.739Z,17.59
2022-10-24T15:22:32.327Z,18.33
2022-10-24T15:25:02.134Z,18.28
2022-10-24T15:27:37.338Z,17.88
2022-10-24T15:30:20.152Z,18.01
2022-10-24T15:32:49.229Z,17.97
2022-10-24T15:35:18.032Z,17.40
2022-10-24T15:37:56.706Z,17.71
2022-10-24T15:40:30.448Z,17.94
2022-10-24T15:42:57.823Z,17.13
2022-10-24T15:45:25.546Z,17.25
2022-10-24T15:47:53.144Z,17.55
2022-10-24T15:52:57.366Z,17.83
2022-10-24T15:55:27.066Z,17.83
2022-10-24T15:57:54.851Z,18.17
2022-10-24T16:00:22.991Z,18.26
2022-10-24T16:02:53.308Z,18.28
2022-10-24T16:05:24.153Z,18.10
2022-10-24T16:07:52.240Z,18.12
2022-10-24T16:10:21.313Z,18.34
2022-10-24T16:12:49.879Z,17.79
2022-10-24T16:15:21.500Z,17.27
2022-10-24T16:17:49.256Z,18.22
2022-10-24T16:20:17.145Z,17.44
2022-10-24T16:22:45.099Z,17.84
2022-10-24T16:25:24.172Z,17.93
2022-10-24T16:27:52.352Z,17.96
2022-10-24T16:30:23.306Z,17.85
2022-10-24T16:32:50.966Z,18.06
2022-10-24T16:35:24.853Z,18.43
2022-10-24T16:37:53.470Z,17.91
2022-10-24T16:40:22.130Z,17.98
2022-10-24T16:42:50.932Z,18.01
2022-10-24T16:45:19.203Z,18.12
2022-10-24T16:47:48.014Z,18.20
2022-10-24T16:50:17.563Z,17.98
2022-10-24T16:52:45.283Z,17.96
2022-10-24T16:55:13.666Z,17.98
2022-10-24T16:57:41.422Z,18.08
2022-10-24T17:00:14.575Z,17.93
2022-10-24T17:02:47.121Z,17.98
2022-10-24T17:05:15.365Z,17.95
2022-10-24T17:07:43.186Z,17.87
2022-10-24T17:10:12.687Z,18.00
2022-10-24T17:12:42.430Z,17.92
2022-10-24T17:15:10.561Z,17.82
2022-10-24T17:17:40.673Z,18.02
2022-10-24T17:20:09.928Z,17.93
2022-10-24T17:22:38.798Z,17.88
2022-10-24T17:25:07.685Z,18.01
2022-10-24T17:27:35.569Z,17.95
2022-10-24T17:30:04.002Z,17.81
2022-10-24T17:32:33.159Z,17.70
2022-10-24T17:35:01.087Z,17.79
2022-10-24T17:37:58.672Z,17.61
2022-10-24T17:40:28.977Z,17.81
2022-10-24T17:42:57.612Z,17.97
2022-10-24T17:45:26.335Z,17.76
2022-10-24T17:47:54.234Z,17.76
2022-10-24T17:50:22.292Z,17.72
2022-10-24T17:52:51.660Z,17.57
2022-10-24T17:55:44.972Z,17.59
2022-10-24T17:58:13.745Z,17.40
2022-10-24T18:00:41.726Z,16.74
2022-10-24T18:03:09.898Z,17.09
2022-10-24T18:05:38.772Z,17.32
2022-10-24T18:08:08.776Z,17.01
2022-10-24T18:10:39.154Z,17.19
2022-10-24T18:13:07.724Z,17.21
2022-10-24T18:15:36.744Z,17.25
2022-10-24T18:18:05.721Z,17.21
2022-10-24T18:20:33.257Z,17.10
2022-10-24T18:23:01.373Z,17.15
2022-10-24T18:25:29.583Z,17.16
2022-10-24T18:27:57.429Z,17.00
2022-10-24T18:30:25.387Z,17.00
2022-10-24T18:32:53.574Z,17.01
2022-10-24T18:35:22.449Z,16.76
2022-10-24T18:37:50.585Z,16.46
2022-10-24T18:40:18.522Z,15.68
2022-10-24T18:42:52.087Z,15.81
2022-10-24T18:45:23.543Z,15.40
2022-10-24T18:47:52.032Z,15.04
2022-10-24T18:50:22.883Z,15.14
2022-10-24T18:53:16.795Z,15.36
2022-10-24T18:55:47.286Z,15.79
2022-10-24T18:58:19.875Z,16.15
2022-10-24T19:00:48.291Z,16.13
2022-10-24T19:03:31.278Z,16.20
2022-10-24T19:06:04.317Z,16.27
2022-10-24T19:08:32.224Z,15.69
2022-10-24T19:11:00.555Z,16.05
2022-10-24T19:13:28.447Z,16.12
2022-10-24T19:16:04.424Z,16.07
2022-10-24T19:18:34.582Z,16.16
2022-10-24T19:21:04.799Z,16.68
2022-10-24T19:23:32.542Z,16.58
2022-10-24T19:26:00.301Z,16.63
2022-10-24T19:28:28.096Z,16.39
2022-10-24T19:30:55.793Z,16.52
2022-10-24T19:33:41.770Z,16.59
2022-10-24T19:36:11.537Z,16.23
2022-10-24T19:38:41.496Z,16.62
2022-10-24T19:41:11.752Z,16.94
2022-10-24T19:43:39.694Z,16.44
2022-10-24T19:46:19.407Z,16.53
2022-10-24T19:48:49.631Z,16.56
2022-10-24T19:51:18.657Z,16.55
2022-10-24T19:53:47.085Z,16.54
2022-10-24T19:56:23.887Z,16.71
2022-10-24T19:58:54.159Z,17.22
2022-10-24T20:01:36.391Z,17.10
2022-10-24T20:04:05.010Z,16.92
2022-10-24T20:06:33.104Z,16.45
2022-10-24T20:09:00.769Z,15.65
2022-10-24T20:11:28.768Z,15.84
2022-10-24T20:13:57.622Z,15.96
2022-10-24T20:16:25.480Z,16.06
2022-10-24T20:18:53.553Z,16.02
2022-10-24T20:21:21.178Z,16.00
2022-10-24T20:23:49.351Z,15.54
2022-10-24T20:26:21.684Z,15.17
2022-10-24T20:28:51.017Z,15.38
2022-10-24T20:31:25.011Z,15.57
2022-10-24T20:33:53.019Z,15.25
2022-10-24T20:36:23.624Z,16.00
2022-10-24T20:38:50.985Z,15.95
2022-10-24T20:41:18.783Z,15.87
2022-10-24T20:43:46.962Z,15.83
2022-10-24T20:46:14.747Z,15.29
2022-10-24T20:48:42.156Z,15.50
2022-10-24T20:51:15.390Z,15.61
2022-10-24T20:53:43.160Z,15.00
2022-10-24T20:56:16.544Z,15.40
2022-10-24T20:58:45.000Z,15.60
2022-10-24T21:01:21.193Z,15.36
2022-10-24T21:03:49.843Z,15.78
2022-10-24T21:06:29.735Z,15.63
2022-10-24T21:09:00.485Z,15.65
2022-10-24T21:11:29.831Z,16.03
2022-10-24T21:14:00.496Z,16.21
2022-10-24T21:16:28.774Z,16.36
2022-10-24T21:18:57.862Z,16.88
2022-10-24T21:21:25.843Z,16.45
2022-10-24T21:23:55.455Z,16.34
2022-10-24T21:26:23.291Z,16.17
2022-10-24T21:28:59.405Z,16.26
2022-10-24T21:31:36.696Z,16.61
2022-10-24T21:36:36.603Z,15.47
2022-10-24T21:39:03.962Z,15.32
2022-10-24T21:41:31.283Z,16.54
2022-10-24T21:43:58.967Z,16.98
2022-10-24T21:46:29.151Z,15.80
2022-10-24T21:48:57.265Z,15.16
2022-10-24T21:51:30.321Z,15.37
2022-10-24T21:54:00.233Z,16.59
2022-10-24T21:56:30.248Z,16.45
2022-10-24T21:58:59.904Z,14.73
2022-10-24T22:01:37.411Z,15.21
2022-10-24T22:04:06.544Z,16.01
2022-10-24T22:06:34.945Z,16.32
2022-10-24T22:09:03.462Z,16.17
2022-10-24T22:11:32.311Z,16.09
2022-10-24T22:14:00.143Z,15.26
2022-10-24T22:16:29.574Z,15.16
2022-10-24T22:19:02.604Z,15.52
2022-10-24T22:21:33.926Z,16.45
2022-10-24T22:26:32.763Z,15.33
2022-10-24T22:29:00.385Z,15.85
2022-10-24T22:31:29.239Z,16.23
2022-10-24T22:33:57.515Z,16.87
2022-10-24T22:36:39.781Z,17.03
2022-10-24T22:39:21.906Z,16.28
2022-10-24T22:41:49.799Z,15.94
2022-10-24T22:44:20.637Z,15.81
2022-10-24T22:47:00.207Z,15.79
2022-10-24T22:49:36.711Z,16.64
2022-10-24T22:52:04.374Z,15.26
2022-10-24T22:54:35.602Z,15.94
2022-10-24T22:57:04.468Z,16.96
2022-10-24T22:59:32.891Z,16.61
2022-10-24T23:02:00.358Z,16.28
2022-10-24T23:04:45.942Z,15.57
2022-10-24T23:07:39.686Z,15.70
2022-10-24T23:10:10.633Z,16.01
2022-10-24T23:12:38.612Z,16.08
2022-10-24T23:15:06.712Z,16.40
2022-10-24T23:17:34.412Z,16.74
2022-10-24T23:20:02.392Z,16.00
2022-10-24T23:22:33.279Z,15.29
2022-10-24T23:25:01.428Z,16.03
2022-10-24T23:27:31.772Z,16.08
2022-10-24T23:29:59.375Z,15.92
2022-10-24T23:32:29.653Z,16.26
2022-10-24T23:34:58.327Z,16.55
2022-10-24T23:37:31.922Z,16.28
2022-10-24T23:40:01.976Z,15.70
2022-10-24T23:42:29.634Z,15.74
2022-10-24T23:44:57.193Z,15.66
2022-10-24T23:47:42.968Z,15.48
2022-10-24T23:50:31.529Z,15.20
2022-10-24T23:53:12.533Z,15.23
2022-10-24T23:55:40.112Z,15.03
2022-10-24T23:58:11.055Z,14.71
